Time;durP1;ratioP1;P1;durP2;ratioP2;P2;SDS_P1;SDS_P2;PMS_P1;PMS_P2;Temp;Humidity;BMP_temperature;BMP_pressure;BME280_temperature;BME280_humidity;BME280_pressure;Samples;Min_cycle;Max_cycle;Signal;HPM_P1;HPM_P2
2022/01/06 00:00:10;;;;;;;7.20;3.63;;;8.40;60.30;;;-142.21;95.85;112049.66;4937785;29;20488;-78
2022/01/06 00:02:38;;;;;;;5.53;3.13;;;8.40;60.50;;;-142.21;95.24;112049.66;4938447;29;20505;-75
2022/01/06 00:05:07;;;;;;;7.80;3.10;;;8.50;60.40;;;-142.21;95.74;112049.66;4938221;29;20489;-77
2022/01/06 00:07:35;;;;;;;7.03;3.37;;;8.50;60.30;;;-142.21;95.81;112049.66;4937845;29;20767;-75
2022/01/06 00:10:04;;;;;;;7.47;3.27;;;8.50;60.10;;;-142.21;95.45;112049.66;4939083;29;20461;-75
2022/01/06 00:12:39;;;;;;;7.17;3.00;;;8.50;60.00;;;-142.21;95.60;112049.66;4946244;29;20482;-77
2022/01/06 00:15:23;;;;;;;9.03;3.50;;;8.50;60.30;;;-142.21;96.23;112049.66;4937566;29;20477;-77
2022/01/06 00:18:13;;;;;;;8.70;3.67;;;8.50;60.50;;;-142.21;96.32;112049.66;4935150;29;20465;-75
2022/01/06 00:23:30;;;;;;;8.83;3.50;;;8.50;60.70;;;-142.21;96.24;112049.66;4940148;29;20433;-80
2022/01/06 00:26:00;;;;;;;7.17;3.37;;;8.50;61.50;;;-142.21;96.51;112049.66;4934484;29;20468;-76
2022/01/06 00:28:31;;;;;;;8.93;3.67;;;8.50;60.70;;;-142.21;96.49;112049.66;4934245;29;20474;-80
2022/01/06 00:31:00;;;;;;;10.00;4.30;;;8.50;60.80;;;-142.21;96.56;112049.66;4935005;29;20800;-79
2022/01/06 00:33:31;;;;;;;7.43;3.57;;;8.50;60.90;;;-142.21;96.75;112049.66;4938383;29;20261;-78
2022/01/06 00:35:59;;;;;;;6.93;3.40;;;8.50;61.00;;;-142.21;97.40;112049.66;4930610;29;20557;-81
2022/01/06 00:38:27;;;;;;;8.00;3.53;;;8.60;60.90;;;-142.21;96.87;112049.66;4932618;29;20878;-79
2022/01/06 00:40:56;;;;;;;7.73;3.80;;;8.60;61.00;;;-142.21;97.27;112049.66;4936285;29;20513;-78
2022/01/06 00:43:24;;;;;;;9.40;3.60;;;8.60;61.10;;;-142.21;97.67;112049.66;4938714;29;20445;-80
2022/01/06 00:45:51;;;;;;;7.43;3.20;;;8.60;60.90;;;-142.21;97.45;112049.66;4922056;29;20475;-80
2022/01/06 00:48:20;;;;;;;9.97;3.43;;;8.60;61.10;;;-142.21;98.08;112049.66;4924994;29;20549;-81
2022/01/06 00:50:47;;;;;;;9.33;3.23;;;8.60;61.10;;;-142.21;97.55;112049.66;4929090;29;20457;-80
2022/01/06 00:53:14;;;;;;;9.33;3.70;;;8.60;60.90;;;-142.21;97.81;112049.66;4936044;29;20512;-80
2022/01/06 00:55:42;;;;;;;6.10;3.70;;;8.60;60.90;;;-142.21;98.85;112049.66;4936283;29;20456;-77
2022/01/06 00:58:10;;;;;;;7.63;3.77;;;8.60;61.60;;;-142.21;98.26;112049.66;4937210;29;20861;-78
2022/01/06 01:00:40;;;;;;;8.97;3.70;;;8.60;61.40;;;-142.21;97.74;112049.66;4939485;29;20473;-79
2022/01/06 01:03:11;;;;;;;7.83;3.37;;;8.70;61.60;;;-142.21;98.18;112049.66;4938850;29;20949;-78
2022/01/06 01:05:41;;;;;;;10.73;4.50;;;8.70;61.70;;;-142.21;98.18;112049.66;4938621;29;20540;-78
2022/01/06 01:08:09;;;;;;;7.97;3.73;;;8.70;61.30;;;-142.21;98.43;112049.66;4937354;29;20538;-79
2022/01/06 01:10:37;;;;;;;8.57;3.50;;;8.70;61.30;;;-142.21;98.41;112049.66;4928692;29;20457;-78
2022/01/06 01:13:08;;;;;;;6.37;3.13;;;8.60;61.50;;;-142.21;98.06;112049.66;4934514;29;20497;-77
2022/01/06 01:15:42;;;;;;;7.17;3.50;;;8.70;61.70;;;-142.21;98.06;112049.66;4918920;29;20457;-78
2022/01/06 01:18:10;;;;;;;9.03;3.33;;;8.70;61.30;;;-142.21;98.34;112049.66;4937372;29;20866;-77
2022/01/06 01:20:39;;;;;;;8.30;3.57;;;8.60;61.30;;;-142.21;98.42;112049.66;4930610;29;20867;-77
2022/01/06 01:23:07;;;;;;;8.73;3.73;;;8.60;61.60;;;-142.21;98.35;112049.66;4937769;29;20483;-78
2022/01/06 01:25:34;;;;;;;8.07;3.27;;;8.50;61.90;;;-142.21;99.18;112049.66;4933251;29;20457;-77
2022/01/06 01:28:03;;;;;;;9.77;3.67;;;8.40;62.00;;;-142.21;99.41;112049.66;4936038;29;20521;-77
2022/01/06 01:30:40;;;;;;;9.30;3.60;;;8.30;62.00;;;-142.21;99.09;112049.66;4914757;29;20465;-77
2022/01/06 01:33:14;;;;;;;10.23;3.40;;;8.20;62.70;;;-142.21;99.65;112049.66;4931260;29;20568;-77
2022/01/06 01:35:43;;;;;;;7.27;3.37;;;8.20;63.00;;;-142.21;100.00;112049.66;4936776;29;21014;-77
2022/01/06 01:38:11;;;;;;;8.00;3.43;;;8.20;62.90;;;-142.21;99.94;112049.66;4927655;29;20450;-76
2022/01/06 01:40:39;;;;;;;7.60;3.20;;;8.20;63.30;;;-142.21;100.00;112049.66;4935652;29;20481;-77
2022/01/06 01:43:06;;;;;;;8.87;3.40;;;8.20;63.50;;;-142.21;100.00;112049.66;4920952;29;20979;-77
2022/01/06 01:45:34;;;;;;;10.37;3.60;;;8.20;63.30;;;-142.21;100.00;112049.66;4920245;29;20568;-78
2022/01/06 01:48:06;;;;;;;7.67;3.50;;;8.20;63.50;;;-142.21;100.00;112049.66;4937152;29;20505;-77
2022/01/06 01:50:33;;;;;;;7.10;3.83;;;8.20;63.70;;;-142.21;100.00;112049.66;4933496;29;20457;-77
2022/01/06 01:53:02;;;;;;;11.70;3.50;;;8.20;63.70;;;-142.21;100.00;112049.66;4937559;29;20523;-77
2022/01/06 01:55:35;;;;;;;9.63;3.40;;;8.20;63.80;;;-142.21;100.00;112049.66;4934230;29;20958;-76
2022/01/06 01:58:03;;;;;;;9.80;3.80;;;8.20;64.30;;;-142.21;100.00;112049.66;4937251;29;20525;-77
2022/01/06 02:00:32;;;;;;;7.40;3.60;;;8.20;64.20;;;-142.21;100.00;112049.66;4936568;29;20518;-76
2022/01/06 02:03:00;;;;;;;9.60;3.80;;;8.20;64.20;;;-142.21;100.00;112049.66;4936415;29;20557;-77
2022/01/06 02:05:28;;;;;;;4.70;3.03;;;8.20;63.90;;;-142.21;100.00;112049.66;4935795;29;20550;-77
2022/01/06 02:07:59;;;;;;;10.93;3.87;;;8.30;64.30;;;-142.21;100.00;112049.66;4937407;29;20458;-77
2022/01/06 02:10:30;;;;;;;8.23;4.00;;;8.20;64.40;;;-142.21;100.00;112049.66;4935812;29;20782;-77
2022/01/06 02:13:00;;;;;;;8.27;3.20;;;8.20;64.70;;;-142.21;100.00;112049.66;4933968;29;20525;-77
2022/01/06 02:15:28;;;;;;;8.47;3.43;;;8.20;64.30;;;-142.21;100.00;112049.66;4930309;29;20955;-78
2022/01/06 02:17:56;;;;;;;8.70;3.17;;;8.20;64.40;;;-142.21;100.00;112049.66;4935923;29;20486;-76
2022/01/06 02:20:25;;;;;;;12.30;3.70;;;8.20;64.40;;;-142.21;100.00;112049.66;4936288;29;20454;-77
2022/01/06 02:22:54;;;;;;;7.33;2.97;;;8.20;64.60;;;-142.21;100.00;112049.66;4935752;29;20492;-76
2022/01/06 02:25:28;;;;;;;6.70;3.20;;;8.20;64.60;;;-142.21;100.00;112049.66;4934216;29;20540;-76
2022/01/06 02:27:57;;;;;;;8.00;3.73;;;8.20;64.40;;;-142.21;100.00;112049.66;4936137;29;20480;-76
2022/01/06 02:30:27;;;;;;;9.53;3.63;;;8.20;64.40;;;-142.21;100.00;112049.66;4928587;29;20453;-77
2022/01/06 02:32:55;;;;;;;7.33;3.57;;;8.30;64.50;;;-142.21;100.00;112049.66;4932180;29;21028;-76
2022/01/06 02:35:25;;;;;;;9.80;4.20;;;8.30;64.30;;;-142.21;100.00;112049.66;4929896;29;20472;-75
2022/01/06 02:37:53;;;;;;;6.97;3.30;;;8.30;64.40;;;-142.21;100.00;112049.66;4935183;29;20481;-77
2022/01/06 02:40:23;;;;;;;10.03;3.60;;;8.20;64.50;;;-142.21;100.00;112049.66;4936384;29;20978;-77
2022/01/06 02:42:54;;;;;;;10.53;3.90;;;8.10;65.20;;;-142.21;100.00;112049.66;4941450;29;20488;-76
2022/01/06 02:45:25;;;;;;;8.53;3.27;;;8.10;65.10;;;-142.21;100.00;112049.66;4930958;29;20482;-77
2022/01/06 02:47:53;;;;;;;7.67;3.67;;;8.20;65.10;;;-142.21;100.00;112049.66;4933936;29;20542;-76
2022/01/06 02:50:21;;;;;;;8.20;3.47;;;8.20;64.60;;;-142.21;100.00;112049.66;4934573;29;20442;-75
2022/01/06 02:52:50;;;;;;;9.10;3.47;;;8.30;64.70;;;-142.21;100.00;112049.66;4935901;29;20482;-76
2022/01/06 02:55:18;;;;;;;5.40;3.03;;;8.20;64.60;;;-142.21;100.00;112049.66;4930380;29;20535;-77
2022/01/06 02:57:47;;;;;;;12.17;3.73;;;8.10;64.40;;;-142.21;100.00;112049.66;4917529;29;20487;-75
2022/01/06 03:00:17;;;;;;;6.47;3.63;;;8.10;64.90;;;-142.21;100.00;112049.66;4930022;29;20509;-77
2022/01/06 03:02:46;;;;;;;7.27;3.30;;;8.10;64.90;;;-142.21;100.00;112049.66;4926656;29;20472;-77
2022/01/06 03:05:15;;;;;;;7.73;3.70;;;8.20;65.00;;;-142.21;100.00;112049.66;4932361;29;20481;-77
2022/01/06 03:07:42;;;;;;;8.77;3.67;;;8.20;64.80;;;-142.21;100.00;112049.66;4921887;29;21006;-76
2022/01/06 03:10:14;;;;;;;9.50;3.27;;;8.20;64.70;;;-142.21;100.00;112049.66;4935734;29;20457;-78
2022/01/06 03:12:43;;;;;;;6.10;3.57;;;8.20;64.90;;;-142.21;100.00;112049.66;4935955;29;20808;-77
2022/01/06 03:15:13;;;;;;;8.50;3.30;;;8.10;64.80;;;-142.21;100.00;112049.66;4932261;29;20499;-78
2022/01/06 03:17:43;;;;;;;7.30;3.53;;;8.20;65.30;;;-142.21;100.00;112049.66;4905400;29;20905;-77
2022/01/06 03:20:13;;;;;;;7.87;3.80;;;8.20;66.10;;;-142.21;100.00;112049.66;4935258;29;20607;-77
2022/01/06 03:22:42;;;;;;;8.13;3.50;;;8.20;65.30;;;-142.21;100.00;112049.66;4934719;29;20908;-76
2022/01/06 03:25:13;;;;;;;12.67;4.80;;;8.20;65.40;;;-142.21;100.00;112049.66;4934406;29;20481;-76
2022/01/06 03:27:42;;;;;;;8.13;3.50;;;8.20;65.60;;;-142.21;100.00;112049.66;4925932;29;20454;-77
2022/01/06 03:30:14;;;;;;;6.23;3.50;;;8.20;65.70;;;-142.21;100.00;112049.66;4934984;29;20458;-77
2022/01/06 03:32:42;;;;;;;8.23;3.70;;;8.20;65.60;;;-142.21;100.00;112049.66;4931944;29;20541;-76
2022/01/06 03:35:12;;;;;;;8.03;3.70;;;8.20;65.70;;;-142.21;100.00;112049.66;4934949;29;20485;-77
2022/01/06 03:37:40;;;;;;;8.13;3.47;;;8.20;65.90;;;-142.21;100.00;112049.66;4921812;29;20868;-77
2022/01/06 03:40:09;;;;;;;7.23;3.90;;;8.10;66.00;;;-142.21;100.00;112049.66;4934811;29;20481;-77
2022/01/06 03:42:39;;;;;;;7.37;3.80;;;8.20;66.20;;;-142.21;100.00;112049.66;4925616;29;20473;-77
2022/01/06 03:45:12;;;;;;;10.47;3.70;;;8.10;66.40;;;-142.21;100.00;112049.66;4942126;29;20472;-77
2022/01/06 03:47:40;;;;;;;9.03;4.03;;;8.20;66.50;;;-142.21;100.00;112049.66;4931865;29;20553;-77
2022/01/06 03:50:09;;;;;;;7.17;3.77;;;8.10;66.70;;;-142.21;100.00;112049.66;4917863;29;20446;-77
2022/01/06 03:52:36;;;;;;;8.13;3.57;;;8.10;66.80;;;-142.21;100.00;112049.66;4932133;29;20513;-79
2022/01/06 03:55:07;;;;;;;9.57;3.43;;;8.10;67.00;;;-142.21;100.00;112049.66;4930059;29;20580;-77
2022/01/06 03:57:34;;;;;;;7.60;3.60;;;8.10;67.20;;;-142.21;100.00;112049.66;4933857;29;20490;-77
2022/01/06 04:00:05;;;;;;;10.70;3.97;;;8.00;66.90;;;-142.21;100.00;112049.66;4934456;29;20465;-77
2022/01/06 04:02:33;;;;;;;8.40;3.40;;;8.00;67.30;;;-142.21;100.00;112049.66;4929600;29;20449;-78
2022/01/06 04:05:00;;;;;;;11.07;4.30;;;8.00;66.90;;;-142.21;100.00;112049.66;4932469;29;20501;-77
2022/01/06 04:07:27;;;;;;;8.10;3.70;;;8.10;66.90;;;-142.21;100.00;112049.66;4932574;29;20298;-76
2022/01/06 04:09:54;;;;;;;8.33;4.03;;;8.10;67.00;;;-142.21;100.00;112049.66;4933717;29;20446;-77
2022/01/06 04:12:22;;;;;;;9.83;4.47;;;8.10;66.90;;;-142.21;100.00;112049.66;4934704;29;20494;-76
2022/01/06 04:14:49;;;;;;;10.07;3.87;;;8.10;66.90;;;-142.21;100.00;112049.66;4934098;29;20520;-76
2022/01/06 04:17:18;;;;;;;8.03;3.40;;;8.20;66.90;;;-142.21;100.00;112049.66;4933923;29;20505;-77
2022/01/06 04:19:45;;;;;;;7.37;3.73;;;8.20;66.80;;;-142.21;100.00;112049.66;4934160;29;20884;-77
2022/01/06 04:22:12;;;;;;;9.13;3.67;;;8.20;66.60;;;-142.21;100.00;112049.66;4934217;29;20513;-77
2022/01/06 04:24:40;;;;;;;7.43;3.80;;;8.20;66.80;;;-142.21;100.00;112049.66;4934080;29;21022;-76
2022/01/06 04:27:07;;;;;;;8.33;4.43;;;8.10;67.00;;;-142.21;100.00;112049.66;4921259;29;20461;-76
2022/01/06 04:29:34;;;;;;;9.37;3.93;;;8.00;67.20;;;-142.21;100.00;112049.66;4934210;29;20489;-76
2022/01/06 04:32:02;;;;;;;7.20;3.77;;;7.90;67.80;;;-142.21;100.00;112049.66;4931657;29;20510;-77
2022/01/06 04:34:30;;;;;;;6.27;3.57;;;7.80;67.80;;;-142.21;100.00;112049.66;4934264;29;20525;-76
2022/01/06 04:36:59;;;;;;;8.37;4.27;;;7.80;68.30;;;-142.21;100.00;112049.66;4929598;29;20810;-77
2022/01/06 04:39:27;;;;;;;11.33;4.00;;;7.70;68.20;;;-142.21;100.00;112049.66;4932067;29;20537;-78
2022/01/06 04:41:54;;;;;;;7.50;4.10;;;7.80;68.60;;;-142.21;100.00;112049.66;4934835;29;20551;-77
2022/01/06 04:44:21;;;;;;;9.07;3.50;;;7.70;68.30;;;-142.21;100.00;112049.66;4929992;29;20517;-78
2022/01/06 04:46:48;;;;;;;8.07;3.90;;;7.70;68.50;;;-142.21;100.00;112049.66;4922695;29;20556;-78
2022/01/06 04:49:16;;;;;;;7.13;3.53;;;7.70;68.50;;;-142.21;100.00;112049.66;4947330;29;20534;-77
2022/01/06 04:51:44;;;;;;;6.30;3.83;;;7.60;68.70;;;-142.21;100.00;112049.66;4954275;28;20491;-77
2022/01/06 04:54:12;;;;;;;9.53;4.10;;;7.60;68.80;;;-142.21;100.00;112049.66;4931152;29;21033;-78
2022/01/06 04:56:40;;;;;;;8.67;4.30;;;7.60;68.60;;;-142.21;100.00;112049.66;4927454;29;20478;-78
2022/01/06 04:59:09;;;;;;;9.33;3.83;;;7.60;69.00;;;-142.21;100.00;112049.66;4940164;29;20533;-76
2022/01/06 05:01:37;;;;;;;10.35;4.00;;;7.50;69.30;;;-142.21;100.00;112049.66;4918577;29;20452;-77
2022/01/06 05:04:05;;;;;;;7.50;4.00;;;7.60;69.50;;;-142.21;100.00;112049.66;4933048;29;20229;-77
2022/01/06 05:06:32;;;;;;;8.80;4.13;;;7.50;69.80;;;-142.21;100.00;112049.66;4925570;29;20202;-75
2022/01/06 05:09:01;;;;;;;9.80;4.43;;;7.50;69.70;;;-142.21;100.00;112049.66;4933714;29;20497;-76
2022/01/06 05:11:28;;;;;;;9.57;4.60;;;7.50;69.90;;;-142.21;100.00;112049.66;4927278;29;20542;-77
2022/01/06 05:13:56;;;;;;;9.48;4.15;;;7.50;69.90;;;-142.21;100.00;112049.66;4933970;29;20518;-78
2022/01/06 05:16:23;;;;;;;8.57;4.20;;;7.50;70.40;;;-142.21;100.00;112049.66;4933672;29;20648;-77
2022/01/06 05:18:51;;;;;;;7.20;4.00;;;7.50;70.10;;;-142.21;100.00;112049.66;4933255;29;20511;-78
2022/01/06 05:21:18;;;;;;;7.53;4.10;;;7.50;70.00;;;-142.21;100.00;112049.66;4923256;29;20470;-77
2022/01/06 05:23:46;;;;;;;9.47;4.70;;;7.50;70.30;;;-142.21;100.00;112049.66;4922366;29;20501;-78
2022/01/06 05:26:15;;;;;;;11.90;5.03;;;7.50;70.40;;;-142.21;100.00;112049.66;4937325;29;20461;-78
2022/01/06 05:28:42;;;;;;;7.57;4.30;;;7.50;70.70;;;-142.21;100.00;112049.66;4933815;29;20457;-79
2022/01/06 05:31:09;;;;;;;6.78;4.40;;;7.50;70.50;;;-142.21;100.00;112049.66;4931730;29;20454;-77
2022/01/06 05:33:36;;;;;;;8.00;4.00;;;7.50;70.60;;;-142.21;100.00;112049.66;4924286;29;20301;-77
2022/01/06 05:36:04;;;;;;;10.80;4.07;;;7.40;70.60;;;-142.21;100.00;112049.66;4936773;29;20484;-77
2022/01/06 05:38:31;;;;;;;13.38;4.57;;;7.40;71.20;;;-142.21;100.00;112049.66;4936886;29;20497;-76
2022/01/06 05:40:58;;;;;;;8.93;4.73;;;7.40;70.90;;;-142.21;100.00;112049.66;4937152;29;20233;-77
2022/01/06 05:43:27;;;;;;;10.27;4.50;;;7.50;71.00;;;-142.21;100.00;112049.66;4936125;29;20450;-76
2022/01/06 05:45:56;;;;;;;7.37;3.60;;;7.50;71.40;;;-142.21;100.00;112049.66;4937135;29;20555;-78
2022/01/06 05:48:24;;;;;;;10.60;4.73;;;7.40;71.70;;;-142.21;100.00;112049.66;4935906;29;20460;-78
2022/01/06 05:50:52;;;;;;;10.13;4.60;;;7.40;71.70;;;-142.21;100.00;112049.66;4936516;29;20501;-77
2022/01/06 05:53:20;;;;;;;9.60;4.50;;;7.50;71.60;;;-142.21;100.00;112049.66;4936621;29;20524;-76
2022/01/06 05:55:48;;;;;;;8.40;4.57;;;7.60;71.70;;;-142.21;100.00;112049.66;4936756;29;20588;-77
2022/01/06 05:58:15;;;;;;;10.10;4.80;;;7.60;71.20;;;-142.21;100.00;112049.66;4934562;29;20478;-76
2022/01/06 06:00:44;;;;;;;8.87;4.70;;;7.70;71.00;;;-142.21;100.00;112049.66;4934982;29;20533;-76
2022/01/06 06:03:12;;;;;;;7.83;4.60;;;7.70;71.00;;;-142.21;100.00;112049.66;4928180;29;20451;-76
2022/01/06 06:05:41;;;;;;;7.57;4.80;;;7.70;70.90;;;-142.21;100.00;112049.66;4943314;29;20543;-77
2022/01/06 06:08:08;;;;;;;8.20;4.50;;;7.70;70.90;;;-142.21;100.00;112049.66;4948620;29;20449;-75
2022/01/06 06:10:36;;;;;;;9.87;4.87;;;7.60;71.00;;;-142.21;100.00;112049.66;4937269;29;20454;-77
2022/01/06 06:13:03;;;;;;;8.73;4.63;;;7.60;70.80;;;-142.21;100.00;112049.66;4936087;29;20517;-78
2022/01/06 06:15:34;;;;;;;6.70;4.60;;;7.60;70.90;;;-142.21;100.00;112049.66;4936299;29;20525;-77
2022/01/06 06:18:06;;;;;;;8.13;4.77;;;7.60;71.00;;;-142.21;100.00;112049.66;4931891;29;20623;-77
2022/01/06 06:20:34;;;;;;;9.87;5.07;;;7.60;71.00;;;-142.21;100.00;112049.66;4936488;29;20537;-77
2022/01/06 06:23:01;;;;;;;11.80;4.67;;;7.70;70.90;;;-142.21;100.00;112049.66;4936127;29;20453;-76
2022/01/06 06:25:28;;;;;;;8.93;4.40;;;7.70;70.90;;;-142.21;100.00;112049.66;4935899;29;20480;-77
2022/01/06 06:27:55;;;;;;;9.52;4.70;;;7.70;70.80;;;-142.21;100.00;112049.66;4926013;29;20877;-76
2022/01/06 06:30:23;;;;;;;8.17;4.13;;;7.80;70.80;;;-142.21;100.00;112049.66;4932992;29;20241;-77
2022/01/06 06:32:50;;;;;;;9.53;4.53;;;7.70;70.80;;;-142.21;100.00;112049.66;4935919;29;20517;-77
2022/01/06 06:35:19;;;;;;;7.30;4.33;;;7.70;70.90;;;-142.21;100.00;112049.66;4925410;29;20485;-77
2022/01/06 06:37:46;;;;;;;9.83;4.87;;;7.70;70.90;;;-142.21;100.00;112049.66;4934534;29;20446;-77
2022/01/06 06:40:14;;;;;;;7.20;4.53;;;7.70;71.00;;;-142.21;100.00;112049.66;4927315;29;20554;-77
2022/01/06 06:42:41;;;;;;;8.73;4.30;;;7.70;71.00;;;-142.21;100.00;112049.66;4946505;28;20486;-77
2022/01/06 06:45:10;;;;;;;7.47;4.90;;;7.70;71.10;;;-142.21;100.00;112049.66;4932815;29;20513;-77
2022/01/06 06:47:38;;;;;;;6.93;4.27;;;7.70;71.40;;;-142.21;100.00;112049.66;4927544;29;20556;-77
2022/01/06 06:50:09;;;;;;;11.50;5.03;;;7.70;71.10;;;-142.21;100.00;112049.66;4935346;29;20486;-78
2022/01/06 06:52:38;;;;;;;7.27;4.90;;;7.70;71.20;;;-142.21;100.00;112049.66;4935444;29;20442;-76
2022/01/06 06:55:05;;;;;;;6.83;4.60;;;7.70;70.90;;;-142.21;100.00;112049.66;4913258;29;20545;-76
2022/01/06 06:57:33;;;;;;;9.97;4.90;;;7.80;71.20;;;-142.21;100.00;112049.66;4936076;29;20520;-77
2022/01/06 07:00:03;;;;;;;9.37;4.90;;;7.80;71.00;;;-142.21;100.00;112049.66;4927274;29;20450;-77
2022/01/06 07:02:31;;;;;;;10.50;5.03;;;7.80;71.00;;;-142.21;100.00;112049.66;4935326;29;20457;-78
2022/01/06 07:04:59;;;;;;;7.00;4.57;;;7.70;71.00;;;-142.21;100.00;112049.66;4926103;29;20481;-78
2022/01/06 07:07:27;;;;;;;7.73;4.83;;;7.80;71.50;;;-142.21;100.00;112049.66;4927727;29;20529;-76
2022/01/06 07:09:56;;;;;;;7.93;5.20;;;7.80;71.60;;;-142.21;100.00;112049.66;4931914;29;20544;-77
2022/01/06 07:12:23;;;;;;;8.00;5.20;;;7.80;71.60;;;-142.21;100.00;112049.66;4935899;29;20514;-77
2022/01/06 07:14:51;;;;;;;9.50;5.03;;;7.80;71.30;;;-142.21;100.00;112049.66;4933259;29;20581;-76
2022/01/06 07:17:18;;;;;;;10.07;5.70;;;7.80;71.40;;;-142.21;100.00;112049.66;4940622;29;20454;-76
2022/01/06 07:19:45;;;;;;;7.47;4.67;;;7.80;71.30;;;-142.21;100.00;112049.66;4935389;29;20450;-77
2022/01/06 07:22:13;;;;;;;8.47;5.33;;;7.70;71.40;;;-142.21;100.00;112049.66;4935025;29;20512;-77
2022/01/06 07:24:40;;;;;;;7.40;4.87;;;7.70;71.70;;;-142.21;100.00;112049.66;4936071;29;20442;-77
2022/01/06 07:27:09;;;;;;;10.07;5.53;;;7.70;71.60;;;-142.21;100.00;112049.66;4934116;29;20812;-77
2022/01/06 07:29:36;;;;;;;12.40;5.37;;;7.70;71.60;;;-142.21;100.00;112049.66;4935204;29;20492;-77
2022/01/06 07:32:04;;;;;;;9.83;5.10;;;7.60;72.40;;;-142.21;100.00;112049.66;4932613;29;20443;-77
2022/01/06 07:34:32;;;;;;;8.23;5.45;;;7.50;71.70;;;-142.21;100.00;112049.66;4928477;29;20548;-77
2022/01/06 07:37:00;;;;;;;10.53;5.87;;;7.50;72.00;;;-142.21;100.00;112049.66;4933591;29;20638;-76
2022/01/06 07:39:28;;;;;;;13.67;5.80;;;7.40;72.30;;;-142.21;100.00;112049.66;4934187;29;20537;-77
2022/01/06 07:41:55;;;;;;;9.73;5.23;;;7.30;72.20;;;-142.21;100.00;112049.66;4933883;29;20556;-77
2022/01/06 07:44:24;;;;;;;10.33;5.60;;;7.30;72.60;;;-142.21;100.00;112049.66;4927950;29;20569;-77
2022/01/06 07:46:51;;;;;;;8.40;5.33;;;7.30;72.60;;;-142.21;100.00;112049.66;4935365;29;20507;-77
2022/01/06 07:49:19;;;;;;;8.40;5.40;;;7.30;72.60;;;-142.21;100.00;112049.66;4931200;29;20497;-77
2022/01/06 07:51:46;;;;;;;10.40;5.43;;;7.30;72.90;;;-142.21;100.00;112049.66;4933906;29;20489;-77
2022/01/06 07:54:16;;;;;;;10.80;5.70;;;7.40;72.60;;;-142.21;100.00;112049.66;4933731;29;20222;-76
2022/01/06 07:56:43;;;;;;;9.90;5.70;;;7.40;72.40;;;-142.21;100.00;112049.66;4923346;29;20450;-77
2022/01/06 07:59:11;;;;;;;12.23;5.40;;;7.50;72.30;;;-142.21;100.00;112049.66;4918869;29;20930;-76
2022/01/06 08:01:41;;;;;;;10.53;5.90;;;7.50;72.20;;;-142.21;100.00;112049.66;4916516;29;20245;-77
2022/01/06 08:04:08;;;;;;;7.57;4.93;;;7.50;72.40;;;-142.21;100.00;112049.66;4928200;29;21015;-76
2022/01/06 08:06:35;;;;;;;7.82;5.50;;;7.50;72.20;;;-142.21;100.00;112049.66;4934889;29;20463;-76
2022/01/06 08:09:03;;;;;;;11.13;5.80;;;7.60;72.40;;;-142.21;100.00;112049.66;4917307;29;20266;-76
2022/01/06 08:11:30;;;;;;;7.47;5.43;;;7.70;72.30;;;-142.21;100.00;112049.66;4934541;29;20224;-76
2022/01/06 08:13:57;;;;;;;9.50;5.47;;;7.70;72.20;;;-142.21;100.00;112049.66;4934348;29;20461;-77
2022/01/06 08:16:25;;;;;;;11.27;5.53;;;7.70;72.20;;;-142.21;100.00;112049.66;4934994;29;20481;-77
2022/01/06 08:18:56;;;;;;;9.07;5.50;;;7.80;72.10;;;-142.21;100.00;112049.66;4934100;29;20454;-78
2022/01/06 08:21:24;;;;;;;6.70;5.30;;;8.10;72.60;;;-142.21;100.00;112049.66;4941978;29;20509;-78
2022/01/06 08:23:51;;;;;;;6.83;4.83;;;8.50;70.60;;;-142.21;100.00;112049.66;4946139;29;20446;-78
2022/01/06 08:26:18;;;;;;;8.87;5.47;;;8.80;68.90;;;-142.21;100.00;112049.66;4935452;29;20591;-77
2022/01/06 08:28:46;;;;;;;8.33;5.17;;;8.70;69.20;;;-142.21;100.00;112049.66;4932831;29;20517;-78
2022/01/06 08:31:14;;;;;;;8.13;5.13;;;9.00;69.00;;;-142.21;100.00;112049.66;4933970;29;20454;-78
2022/01/06 08:33:41;;;;;;;8.87;5.10;;;9.10;68.40;;;-142.21;100.00;112049.66;4916300;29;20453;-78
2022/01/06 08:36:10;;;;;;;7.83;4.87;;;9.20;67.80;;;-142.21;100.00;112049.66;4932392;29;20482;-78
2022/01/06 08:38:37;;;;;;;8.53;5.00;;;9.40;68.00;;;-142.21;100.00;112049.66;4934718;29;20482;-77
2022/01/06 08:41:05;;;;;;;8.07;5.10;;;9.40;67.10;;;-142.21;100.00;112049.66;4933991;29;20513;-78
2022/01/06 08:43:32;;;;;;;8.00;5.30;;;9.30;67.50;;;-142.21;100.00;112049.66;4933916;29;20509;-77
2022/01/06 08:46:00;;;;;;;8.73;4.90;;;9.30;67.70;;;-142.21;100.00;112049.66;4932787;29;20473;-77
2022/01/06 08:48:29;;;;;;;9.67;5.13;;;9.50;67.30;;;-142.21;100.00;112049.66;4934508;29;20481;-75
2022/01/06 08:50:56;;;;;;;7.57;5.00;;;9.40;66.80;;;-142.21;100.00;112049.66;4933951;29;20450;-77
2022/01/06 08:53:26;;;;;;;7.77;5.70;;;9.30;67.20;;;-142.21;100.00;112049.66;4936317;29;20792;-78
2022/01/06 08:55:56;;;;;;;9.07;5.47;;;9.30;67.50;;;-142.21;100.00;112049.66;4937715;29;20477;-78
2022/01/06 08:58:24;;;;;;;9.57;5.10;;;9.40;67.50;;;-142.21;100.00;112049.66;4938080;29;20496;-77
2022/01/06 09:00:51;;;;;;;7.67;4.77;;;9.40;67.30;;;-142.21;100.00;112049.66;4937382;29;20569;-77
2022/01/06 09:03:18;;;;;;;11.60;5.33;;;9.50;66.80;;;-142.21;100.00;112049.66;4938046;29;20454;-76
2022/01/06 09:05:46;;;;;;;8.50;5.70;;;9.60;66.40;;;-142.21;100.00;112049.66;4937756;29;20785;-77
2022/01/06 09:08:14;;;;;;;9.50;5.73;;;9.70;65.90;;;-142.21;100.00;112049.66;4938259;29;20482;-76
2022/01/06 09:10:42;;;;;;;7.43;4.90;;;9.90;66.20;;;-142.21;100.00;112049.66;4938153;29;20513;-78
2022/01/06 09:13:10;;;;;;;9.23;5.73;;;10.20;64.30;;;-142.21;100.00;112049.66;4925112;29;20458;-77
2022/01/06 09:15:37;;;;;;;8.73;5.10;;;10.10;63.60;;;-142.21;100.00;112049.66;4937893;29;20536;-78
2022/01/06 09:18:06;;;;;;;9.77;5.43;;;10.00;63.90;;;-142.21;100.00;112049.66;4938072;29;20544;-78
2022/01/06 09:20:34;;;;;;;9.07;4.97;;;10.20;64.20;;;-142.21;100.00;112049.66;4941210;29;20445;-78
2022/01/06 09:23:02;;;;;;;9.20;5.20;;;10.30;63.90;;;-142.21;100.00;112049.66;4957127;28;20488;-77
2022/01/06 09:25:30;;;;;;;5.00;4.43;;;10.40;63.40;;;-142.21;99.77;112049.66;4946686;28;20457;-78
2022/01/06 09:27:58;;;;;;;6.37;4.40;;;10.40;63.30;;;-142.21;99.39;112049.66;4937502;29;20551;-77
2022/01/06 09:30:26;;;;;;;8.93;5.53;;;10.60;62.70;;;-142.21;99.07;112049.66;4937248;29;20493;-77
2022/01/06 09:32:59;;;;;;;8.57;5.20;;;10.70;61.90;;;-142.21;99.66;112049.66;4937277;29;20500;-79
2022/01/06 09:35:26;;;;;;;8.73;5.33;;;10.90;61.40;;;-142.21;97.82;112049.66;4934775;29;20601;-77
2022/01/06 09:37:54;;;;;;;6.80;4.97;;;11.00;61.00;;;-142.21;98.06;112049.66;4928847;29;20970;-76
2022/01/06 09:40:21;;;;;;;7.23;4.70;;;11.20;60.40;;;-142.21;95.05;112049.66;4937565;29;20461;-76
2022/01/06 09:42:49;;;;;;;6.47;4.77;;;11.90;59.70;;;-142.21;94.16;112049.66;4937510;29;20482;-77
2022/01/06 09:45:27;;;;;;;7.90;4.90;;;12.30;58.70;;;-142.21;90.40;112049.66;4931460;29;20520;-78
2022/01/06 09:48:00;;;;;;;7.10;4.63;;;12.70;56.90;;;-142.21;90.14;112049.66;4936517;29;20493;-78
2022/01/06 09:50:28;;;;;;;8.63;4.80;;;12.80;55.90;;;-142.21;91.33;112049.66;4937369;29;20542;-79
2022/01/06 09:53:02;;;;;;;7.80;4.20;;;13.00;56.80;;;-142.21;80.62;112049.66;4937862;29;20566;-77
2022/01/06 09:55:36;;;;;;;4.77;4.10;;;13.70;55.60;;;-142.21;71.78;112049.66;4923102;29;21006;-76
2022/01/06 09:58:03;;;;;;;8.03;4.00;;;14.20;53.80;;;-142.21;65.23;112049.66;4927702;29;20445;-79
2022/01/06 10:00:36;;;;;;;8.77;4.93;;;14.90;53.80;;;-142.21;70.44;112049.66;4929868;29;20505;-80
2022/01/06 10:03:06;;;;;;;7.57;4.47;;;15.90;51.60;;;-142.21;60.88;112049.66;4903021;29;20801;-78
2022/01/06 10:05:42;;;;;;;10.70;4.70;;;16.00;51.30;;;-142.21;57.26;112049.66;4924905;29;20479;-77
2022/01/06 10:08:10;;;;;;;6.57;3.80;;;16.20;50.80;;;-142.21;59.71;112049.66;4927901;29;20516;-78